sensor_id;sensor_type;location;lat;lon;timestamp;P1;durP1;ratioP1;P2;durP2;ratioP2
50267;SDS011;36153;50.960;6.220;2023-04-06T00:00:40;15.32;;;8.80;;
50267;SDS011;36153;50.960;6.220;2023-04-06T00:03:41;16.27;;;7.75;;
50267;SDS011;36153;50.960;6.220;2023-04-06T00:06:41;15.23;;;8.13;;
50267;SDS011;36153;50.960;6.220;2023-04-06T00:09:41;15.45;;;8.10;;
50267;SDS011;36153;50.960;6.220;2023-04-06T00:12:42;14.07;;;8.43;;
50267;SDS011;36153;50.960;6.220;2023-04-06T00:15:42;13.38;;;7.00;;
50267;SDS011;36153;50.960;6.220;2023-04-06T00:18:42;15.55;;;8.40;;
50267;SDS011;36153;50.960;6.220;2023-04-06T00:21:43;13.43;;;8.43;;
50267;SDS011;36153;50.960;6.220;2023-04-06T00:24:44;15.93;;;9.25;;
50267;SDS011;36153;50.960;6.220;2023-04-06T00:27:44;15.30;;;8.68;;
50267;SDS011;36153;50.960;6.220;2023-04-06T00:30:44;15.85;;;7.60;;
50267;SDS011;36153;50.960;6.220;2023-04-06T00:33:45;17.13;;;8.75;;
50267;SDS011;36153;50.960;6.220;2023-04-06T00:36:45;15.65;;;8.68;;
50267;SDS011;36153;50.960;6.220;2023-04-06T00:39:45;16.42;;;8.45;;
50267;SDS011;36153;50.960;6.220;2023-04-06T00:42:46;15.25;;;8.10;;
50267;SDS011;36153;50.960;6.220;2023-04-06T00:45:46;15.43;;;8.50;;
50267;SDS011;36153;50.960;6.220;2023-04-06T00:48:46;15.52;;;9.25;;
50267;SDS011;36153;50.960;6.220;2023-04-06T00:51:47;15.70;;;7.90;;
50267;SDS011;36153;50.960;6.220;2023-04-06T00:54:48;13.30;;;8.40;;
50267;SDS011;36153;50.960;6.220;2023-04-06T00:57:48;14.10;;;7.47;;
50267;SDS011;36153;50.960;6.220;2023-04-06T01:00:50;18.92;;;8.70;;
50267;SDS011;36153;50.960;6.220;2023-04-06T01:03:50;16.73;;;8.25;;
50267;SDS011;36153;50.960;6.220;2023-04-06T01:06:51;15.32;;;7.63;;
50267;SDS011;36153;50.960;6.220;2023-04-06T01:09:53;13.60;;;8.13;;
50267;SDS011;36153;50.960;6.220;2023-04-06T01:12:53;15.40;;;7.43;;
50267;SDS011;36153;50.960;6.220;2023-04-06T01:15:54;14.93;;;7.65;;
50267;SDS011;36153;50.960;6.220;2023-04-06T01:18:54;12.27;;;6.47;;
50267;SDS011;36153;50.960;6.220;2023-04-06T01:21:55;16.48;;;6.88;;
50267;SDS011;36153;50.960;6.220;2023-04-06T01:24:55;14.70;;;6.65;;
50267;SDS011;36153;50.960;6.220;2023-04-06T01:27:56;17.20;;;7.45;;
50267;SDS011;36153;50.960;6.220;2023-04-06T01:30:57;18.75;;;8.13;;
50267;SDS011;36153;50.960;6.220;2023-04-06T01:33:57;10.75;;;6.80;;
50267;SDS011;36153;50.960;6.220;2023-04-06T01:36:57;15.93;;;6.82;;
50267;SDS011;36153;50.960;6.220;2023-04-06T01:39:58;11.45;;;6.50;;
50267;SDS011;36153;50.960;6.220;2023-04-06T01:42:59;11.27;;;7.10;;
50267;SDS011;36153;50.960;6.220;2023-04-06T01:46:00;13.30;;;7.15;;
50267;SDS011;36153;50.960;6.220;2023-04-06T01:49:00;13.23;;;6.78;;
50267;SDS011;36153;50.960;6.220;2023-04-06T01:52:01;14.40;;;6.88;;
50267;SDS011;36153;50.960;6.220;2023-04-06T01:55:01;13.88;;;7.53;;
50267;SDS011;36153;50.960;6.220;2023-04-06T01:58:01;11.68;;;6.45;;
50267;SDS011;36153;50.960;6.220;2023-04-06T02:01:01;10.13;;;6.57;;
50267;SDS011;36153;50.960;6.220;2023-04-06T02:04:02;13.45;;;7.25;;
50267;SDS011;36153;50.960;6.220;2023-04-06T02:07:02;13.15;;;7.53;;
50267;SDS011;36153;50.960;6.220;2023-04-06T02:10:03;9.95;;;5.93;;
50267;SDS011;36153;50.960;6.220;2023-04-06T02:13:04;13.90;;;7.20;;
50267;SDS011;36153;50.960;6.220;2023-04-06T02:16:04;13.38;;;6.82;;
50267;SDS011;36153;50.960;6.220;2023-04-06T02:19:05;14.23;;;6.90;;
50267;SDS011;36153;50.960;6.220;2023-04-06T02:22:06;12.77;;;7.22;;
50267;SDS011;36153;50.960;6.220;2023-04-06T02:25:06;12.25;;;6.60;;
50267;SDS011;36153;50.960;6.220;2023-04-06T02:28:07;11.18;;;6.32;;
50267;SDS011;36153;50.960;6.220;2023-04-06T02:31:08;9.73;;;5.03;;
50267;SDS011;36153;50.960;6.220;2023-04-06T02:34:08;12.77;;;6.95;;
50267;SDS011;36153;50.960;6.220;2023-04-06T02:37:11;10.93;;;6.57;;
50267;SDS011;36153;50.960;6.220;2023-04-06T02:40:13;11.38;;;6.07;;
50267;SDS011;36153;50.960;6.220;2023-04-06T02:43:14;12.23;;;6.65;;
50267;SDS011;36153;50.960;6.220;2023-04-06T02:46:15;12.02;;;6.68;;
50267;SDS011;36153;50.960;6.220;2023-04-06T02:49:15;12.95;;;6.50;;
50267;SDS011;36153;50.960;6.220;2023-04-06T02:52:16;9.98;;;6.25;;
50267;SDS011;36153;50.960;6.220;2023-04-06T02:55:17;10.00;;;5.65;;
50267;SDS011;36153;50.960;6.220;2023-04-06T02:58:19;10.90;;;5.97;;
50267;SDS011;36153;50.960;6.220;2023-04-06T03:01:19;10.32;;;6.13;;
50267;SDS011;36153;50.960;6.220;2023-04-06T03:04:20;12.15;;;5.85;;
50267;SDS011;36153;50.960;6.220;2023-04-06T03:07:22;11.65;;;6.60;;
50267;SDS011;36153;50.960;6.220;2023-04-06T03:10:23;12.02;;;6.28;;
50267;SDS011;36153;50.960;6.220;2023-04-06T03:13:23;9.38;;;5.68;;
50267;SDS011;36153;50.960;6.220;2023-04-06T03:16:23;13.80;;;6.20;;
50267;SDS011;36153;50.960;6.220;2023-04-06T03:19:24;13.50;;;6.63;;
50267;SDS011;36153;50.960;6.220;2023-04-06T03:22:24;12.63;;;6.65;;
50267;SDS011;36153;50.960;6.220;2023-04-06T03:25:24;12.70;;;7.43;;
50267;SDS011;36153;50.960;6.220;2023-04-06T03:28:25;15.38;;;6.65;;
50267;SDS011;36153;50.960;6.220;2023-04-06T03:31:26;13.50;;;5.78;;
50267;SDS011;36153;50.960;6.220;2023-04-06T03:34:29;16.38;;;8.20;;
50267;SDS011;36153;50.960;6.220;2023-04-06T03:37:30;10.05;;;6.03;;
50267;SDS011;36153;50.960;6.220;2023-04-06T03:40:30;12.68;;;6.65;;
50267;SDS011;36153;50.960;6.220;2023-04-06T03:43:31;11.60;;;5.63;;
50267;SDS011;36153;50.960;6.220;2023-04-06T03:46:31;10.27;;;5.93;;
50267;SDS011;36153;50.960;6.220;2023-04-06T03:49:32;11.82;;;6.00;;
50267;SDS011;36153;50.960;6.220;2023-04-06T03:52:32;10.55;;;6.57;;
50267;SDS011;36153;50.960;6.220;2023-04-06T03:55:33;13.48;;;6.80;;
50267;SDS011;36153;50.960;6.220;2023-04-06T03:58:33;8.68;;;6.00;;
50267;SDS011;36153;50.960;6.220;2023-04-06T04:01:33;10.63;;;6.53;;
50267;SDS011;36153;50.960;6.220;2023-04-06T04:04:34;13.95;;;6.05;;
50267;SDS011;36153;50.960;6.220;2023-04-06T04:07:34;11.30;;;6.95;;
50267;SDS011;36153;50.960;6.220;2023-04-06T04:10:35;12.75;;;6.57;;
50267;SDS011;36153;50.960;6.220;2023-04-06T04:13:35;11.15;;;6.82;;
50267;SDS011;36153;50.960;6.220;2023-04-06T04:16:35;12.35;;;5.75;;
50267;SDS011;36153;50.960;6.220;2023-04-06T04:19:36;14.10;;;6.72;;
50267;SDS011;36153;50.960;6.220;2023-04-06T04:22:36;10.00;;;6.78;;
50267;SDS011;36153;50.960;6.220;2023-04-06T04:25:36;13.82;;;6.90;;
50267;SDS011;36153;50.960;6.220;2023-04-06T04:28:37;12.30;;;6.88;;
50267;SDS011;36153;50.960;6.220;2023-04-06T04:31:37;11.10;;;6.20;;
50267;SDS011;36153;50.960;6.220;2023-04-06T04:34:37;12.18;;;6.82;;
50267;SDS011;36153;50.960;6.220;2023-04-06T04:37:40;9.85;;;5.40;;
50267;SDS011;36153;50.960;6.220;2023-04-06T04:40:41;14.98;;;6.40;;
50267;SDS011;36153;50.960;6.220;2023-04-06T04:43:41;12.63;;;7.00;;
50267;SDS011;36153;50.960;6.220;2023-04-06T04:46:42;13.15;;;6.25;;
50267;SDS011;36153;50.960;6.220;2023-04-06T04:49:42;10.40;;;5.32;;
50267;SDS011;36153;50.960;6.220;2023-04-06T04:52:43;10.27;;;6.63;;
50267;SDS011;36153;50.960;6.220;2023-04-06T04:55:43;11.30;;;6.43;;
50267;SDS011;36153;50.960;6.220;2023-04-06T04:58:44;11.07;;;6.63;;
50267;SDS011;36153;50.960;6.220;2023-04-06T05:01:44;14.80;;;7.60;;
50267;SDS011;36153;50.960;6.220;2023-04-06T05:04:44;13.50;;;6.72;;
50267;SDS011;36153;50.960;6.220;2023-04-06T05:07:45;12.38;;;6.45;;
50267;SDS011;36153;50.960;6.220;2023-04-06T05:10:45;12.40;;;6.18;;
50267;SDS011;36153;50.960;6.220;2023-04-06T05:13:48;16.98;;;6.68;;
50267;SDS011;36153;50.960;6.220;2023-04-06T05:16:48;17.70;;;7.85;;
50267;SDS011;36153;50.960;6.220;2023-04-06T05:19:48;18.15;;;7.28;;
50267;SDS011;36153;50.960;6.220;2023-04-06T05:22:49;11.15;;;6.85;;
50267;SDS011;36153;50.960;6.220;2023-04-06T05:25:49;22.52;;;6.88;;
50267;SDS011;36153;50.960;6.220;2023-04-06T05:28:50;12.00;;;6.55;;
50267;SDS011;36153;50.960;6.220;2023-04-06T05:31:51;14.07;;;7.05;;
50267;SDS011;36153;50.960;6.220;2023-04-06T05:34:51;21.05;;;7.88;;
50267;SDS011;36153;50.960;6.220;2023-04-06T05:37:51;13.02;;;7.70;;
50267;SDS011;36153;50.960;6.220;2023-04-06T05:40:52;18.65;;;7.30;;
50267;SDS011;36153;50.960;6.220;2023-04-06T05:43:52;17.02;;;7.95;;
50267;SDS011;36153;50.960;6.220;2023-04-06T05:46:53;15.45;;;7.75;;
50267;SDS011;36153;50.960;6.220;2023-04-06T05:49:53;13.88;;;7.35;;
50267;SDS011;36153;50.960;6.220;2023-04-06T05:52:53;17.67;;;8.18;;
50267;SDS011;36153;50.960;6.220;2023-04-06T05:55:54;18.27;;;7.03;;
50267;SDS011;36153;50.960;6.220;2023-04-06T05:58:54;17.60;;;7.38;;
50267;SDS011;36153;50.960;6.220;2023-04-06T06:01:55;11.30;;;7.15;;
50267;SDS011;36153;50.960;6.220;2023-04-06T06:04:55;19.88;;;7.68;;
50267;SDS011;36153;50.960;6.220;2023-04-06T06:07:56;17.52;;;6.97;;
50267;SDS011;36153;50.960;6.220;2023-04-06T06:10:56;15.65;;;7.55;;
50267;SDS011;36153;50.960;6.220;2023-04-06T06:13:56;13.05;;;6.90;;
50267;SDS011;36153;50.960;6.220;2023-04-06T06:16:57;17.73;;;6.65;;
50267;SDS011;36153;50.960;6.220;2023-04-06T06:19:57;17.92;;;8.35;;
50267;SDS011;36153;50.960;6.220;2023-04-06T06:22:58;13.77;;;8.18;;
50267;SDS011;36153;50.960;6.220;2023-04-06T06:25:58;17.63;;;7.55;;
50267;SDS011;36153;50.960;6.220;2023-04-06T06:28:59;15.30;;;7.15;;
50267;SDS011;36153;50.960;6.220;2023-04-06T06:31:59;13.13;;;7.32;;
50267;SDS011;36153;50.960;6.220;2023-04-06T06:35:00;18.38;;;7.95;;
50267;SDS011;36153;50.960;6.220;2023-04-06T06:38:00;21.33;;;7.70;;
50267;SDS011;36153;50.960;6.220;2023-04-06T06:41:01;13.18;;;7.88;;
50267;SDS011;36153;50.960;6.220;2023-04-06T06:44:01;12.38;;;6.72;;
50267;SDS011;36153;50.960;6.220;2023-04-06T06:47:02;13.82;;;7.25;;
50267;SDS011;36153;50.960;6.220;2023-04-06T06:50:02;16.98;;;7.35;;
50267;SDS011;36153;50.960;6.220;2023-04-06T06:53:03;12.90;;;7.15;;
50267;SDS011;36153;50.960;6.220;2023-04-06T06:56:04;14.13;;;7.85;;
50267;SDS011;36153;50.960;6.220;2023-04-06T06:59:05;13.77;;;7.25;;
50267;SDS011;36153;50.960;6.220;2023-04-06T07:02:06;14.25;;;7.35;;
50267;SDS011;36153;50.960;6.220;2023-04-06T07:05:06;15.20;;;7.47;;
50267;SDS011;36153;50.960;6.220;2023-04-06T07:08:07;15.20;;;8.32;;
50267;SDS011;36153;50.960;6.220;2023-04-06T07:11:07;14.07;;;7.97;;
50267;SDS011;36153;50.960;6.220;2023-04-06T07:14:07;13.88;;;7.80;;
50267;SDS011;36153;50.960;6.220;2023-04-06T07:17:08;11.32;;;6.55;;
50267;SDS011;36153;50.960;6.220;2023-04-06T07:20:09;13.25;;;7.47;;
50267;SDS011;36153;50.960;6.220;2023-04-06T07:23:10;14.32;;;7.18;;
50267;SDS011;36153;50.960;6.220;2023-04-06T07:26:10;15.15;;;7.32;;
50267;SDS011;36153;50.960;6.220;2023-04-06T07:29:11;14.18;;;7.50;;
50267;SDS011;36153;50.960;6.220;2023-04-06T07:32:12;19.38;;;9.65;;
50267;SDS011;36153;50.960;6.220;2023-04-06T07:35:13;16.33;;;8.43;;
50267;SDS011;36153;50.960;6.220;2023-04-06T07:38:13;12.70;;;7.82;;
50267;SDS011;36153;50.960;6.220;2023-04-06T07:41:13;13.55;;;7.38;;
50267;SDS011;36153;50.960;6.220;2023-04-06T07:44:14;14.02;;;8.68;;
50267;SDS011;36153;50.960;6.220;2023-04-06T07:47:15;14.75;;;7.63;;
50267;SDS011;36153;50.960;6.220;2023-04-06T07:50:15;16.50;;;8.25;;
50267;SDS011;36153;50.960;6.220;2023-04-06T07:53:15;14.70;;;7.63;;
50267;SDS011;36153;50.960;6.220;2023-04-06T07:56:16;13.93;;;8.23;;
50267;SDS011;36153;50.960;6.220;2023-04-06T07:59:16;14.82;;;7.63;;
50267;SDS011;36153;50.960;6.220;2023-04-06T08:02:17;15.88;;;8.77;;
50267;SDS011;36153;50.960;6.220;2023-04-06T08:05:17;14.93;;;8.35;;
50267;SDS011;36153;50.960;6.220;2023-04-06T08:08:18;12.63;;;8.27;;
50267;SDS011;36153;50.960;6.220;2023-04-06T08:11:19;14.43;;;7.95;;
50267;SDS011;36153;50.960;6.220;2023-04-06T08:14:20;15.55;;;7.72;;
50267;SDS011;36153;50.960;6.220;2023-04-06T08:17:20;15.40;;;9.18;;
50267;SDS011;36153;50.960;6.220;2023-04-06T08:20:21;14.52;;;8.25;;
50267;SDS011;36153;50.960;6.220;2023-04-06T08:23:21;12.73;;;7.63;;
50267;SDS011;36153;50.960;6.220;2023-04-06T08:26:21;14.23;;;9.13;;
50267;SDS011;36153;50.960;6.220;2023-04-06T08:29:22;16.58;;;8.57;;
50267;SDS011;36153;50.960;6.220;2023-04-06T08:32:22;17.35;;;8.95;;
50267;SDS011;36153;50.960;6.220;2023-04-06T08:35:22;16.67;;;9.68;;
50267;SDS011;36153;50.960;6.220;2023-04-06T08:38:23;14.13;;;9.10;;
50267;SDS011;36153;50.960;6.220;2023-04-06T08:41:23;19.00;;;9.70;;
50267;SDS011;36153;50.960;6.220;2023-04-06T08:44:23;20.42;;;9.15;;
50267;SDS011;36153;50.960;6.220;2023-04-06T08:47:24;17.85;;;9.70;;
50267;SDS011;36153;50.960;6.220;2023-04-06T08:50:25;16.88;;;9.35;;
50267;SDS011;36153;50.960;6.220;2023-04-06T08:53:26;17.23;;;9.70;;
50267;SDS011;36153;50.960;6.220;2023-04-06T08:56:27;14.60;;;9.00;;
50267;SDS011;36153;50.960;6.220;2023-04-06T08:59:28;15.32;;;9.18;;
50267;SDS011;36153;50.960;6.220;2023-04-06T09:02:29;14.93;;;8.85;;
50267;SDS011;36153;50.960;6.220;2023-04-06T09:05:29;16.45;;;8.50;;
50267;SDS011;36153;50.960;6.220;2023-04-06T09:08:30;25.08;;;9.43;;
50267;SDS011;36153;50.960;6.220;2023-04-06T09:11:41;20.60;;;9.85;;
50267;SDS011;36153;50.960;6.220;2023-04-06T09:14:48;13.50;;;6.68;;
50267;SDS011;36153;50.960;6.220;2023-04-06T09:17:49;12.40;;;6.07;;
50267;SDS011;36153;50.960;6.220;2023-04-06T09:20:56;17.30;;;5.93;;
50267;SDS011;36153;50.960;6.220;2023-04-06T09:24:07;12.85;;;6.32;;
50267;SDS011;36153;50.960;6.220;2023-04-06T09:27:08;11.48;;;6.65;;
50267;SDS011;36153;50.960;6.220;2023-04-06T09:30:09;9.77;;;6.57;;
50267;SDS011;36153;50.960;6.220;2023-04-06T09:33:14;12.23;;;6.95;;
50267;SDS011;36153;50.960;6.220;2023-04-06T09:36:30;11.30;;;6.05;;
50267;SDS011;36153;50.960;6.220;2023-04-06T09:39:32;11.50;;;5.93;;
50267;SDS011;36153;50.960;6.220;2023-04-06T09:42:32;11.20;;;5.72;;
50267;SDS011;36153;50.960;6.220;2023-04-06T09:45:34;13.45;;;7.20;;
50267;SDS011;36153;50.960;6.220;2023-04-06T09:48:35;15.05;;;7.18;;
50267;SDS011;36153;50.960;6.220;2023-04-06T09:51:37;11.35;;;5.80;;
50267;SDS011;36153;50.960;6.220;2023-04-06T09:54:39;12.43;;;6.32;;
50267;SDS011;36153;50.960;6.220;2023-04-06T09:58:27;13.93;;;7.28;;
50267;SDS011;36153;50.960;6.220;2023-04-06T10:01:07;11.68;;;6.57;;
50267;SDS011;36153;50.960;6.220;2023-04-06T10:04:30;11.90;;;6.10;;
50267;SDS011;36153;50.960;6.220;2023-04-06T10:07:43;11.70;;;6.18;;
50267;SDS011;36153;50.960;6.220;2023-04-06T10:10:45;13.95;;;7.28;;
50267;SDS011;36153;50.960;6.220;2023-04-06T10:13:46;15.45;;;6.88;;
50267;SDS011;36153;50.960;6.220;2023-04-06T10:16:48;13.50;;;7.82;;
50267;SDS011;36153;50.960;6.220;2023-04-06T10:20:00;14.30;;;6.75;;
50267;SDS011;36153;50.960;6.220;2023-04-06T10:23:45;14.20;;;7.47;;
50267;SDS011;36153;50.960;6.220;2023-04-06T10:26:57;13.43;;;6.28;;
50267;SDS011;36153;50.960;6.220;2023-04-06T10:30:05;11.45;;;6.53;;
50267;SDS011;36153;50.960;6.220;2023-04-06T10:33:14;12.45;;;5.90;;
50267;SDS011;36153;50.960;6.220;2023-04-06T10:36:23;18.17;;;7.63;;
50267;SDS011;36153;50.960;6.220;2023-04-06T10:39:26;10.68;;;5.28;;
50267;SDS011;36153;50.960;6.220;2023-04-06T10:42:36;10.75;;;6.20;;
50267;SDS011;36153;50.960;6.220;2023-04-06T10:45:38;11.02;;;5.65;;
50267;SDS011;36153;50.960;6.220;2023-04-06T10:48:44;9.75;;;6.10;;
50267;SDS011;36153;50.960;6.220;2023-04-06T10:51:51;10.40;;;5.18;;
50267;SDS011;36153;50.960;6.220;2023-04-06T10:54:55;10.77;;;5.25;;
50267;SDS011;36153;50.960;6.220;2023-04-06T10:57:56;9.32;;;5.00;;
50267;SDS011;36153;50.960;6.220;2023-04-06T11:00:57;11.13;;;5.82;;
50267;SDS011;36153;50.960;6.220;2023-04-06T11:03:57;10.05;;;4.80;;
50267;SDS011;36153;50.960;6.220;2023-04-06T11:07:01;8.68;;;5.43;;
50267;SDS011;36153;50.960;6.220;2023-04-06T11:10:01;9.50;;;5.20;;
50267;SDS011;36153;50.960;6.220;2023-04-06T11:13:02;9.68;;;5.03;;
50267;SDS011;36153;50.960;6.220;2023-04-06T11:16:03;7.07;;;3.58;;
50267;SDS011;36153;50.960;6.220;2023-04-06T11:19:04;6.80;;;2.90;;
50267;SDS011;36153;50.960;6.220;2023-04-06T11:22:08;5.85;;;3.08;;
50267;SDS011;36153;50.960;6.220;2023-04-06T11:25:08;7.60;;;3.25;;
50267;SDS011;36153;50.960;6.220;2023-04-06T11:28:09;6.13;;;3.25;;
50267;SDS011;36153;50.960;6.220;2023-04-06T11:31:10;4.93;;;2.70;;
50267;SDS011;36153;50.960;6.220;2023-04-06T11:34:12;8.32;;;4.80;;
50267;SDS011;36153;50.960;6.220;2023-04-06T11:37:13;7.03;;;4.30;;
50267;SDS011;36153;50.960;6.220;2023-04-06T11:40:14;10.48;;;4.72;;
50267;SDS011;36153;50.960;6.220;2023-04-06T11:43:14;8.05;;;4.25;;
50267;SDS011;36153;50.960;6.220;2023-04-06T11:46:17;10.90;;;4.82;;
50267;SDS011;36153;50.960;6.220;2023-04-06T11:49:19;11.35;;;5.10;;
50267;SDS011;36153;50.960;6.220;2023-04-06T11:52:23;7.95;;;4.55;;
50267;SDS011;36153;50.960;6.220;2023-04-06T11:55:27;9.93;;;5.22;;
50267;SDS011;36153;50.960;6.220;2023-04-06T11:58:27;8.73;;;5.57;;
50267;SDS011;36153;50.960;6.220;2023-04-06T12:01:29;9.60;;;5.53;;
50267;SDS011;36153;50.960;6.220;2023-04-06T12:04:30;8.88;;;5.03;;
50267;SDS011;36153;50.960;6.220;2023-04-06T12:07:32;10.55;;;4.53;;
50267;SDS011;36153;50.960;6.220;2023-04-06T12:10:32;10.55;;;6.07;;
50267;SDS011;36153;50.960;6.220;2023-04-06T12:13:33;9.45;;;5.53;;
50267;SDS011;36153;50.960;6.220;2023-04-06T12:16:33;8.48;;;5.82;;
50267;SDS011;36153;50.960;6.220;2023-04-06T12:19:34;9.02;;;5.60;;
50267;SDS011;36153;50.960;6.220;2023-04-06T12:22:35;8.52;;;4.90;;
50267;SDS011;36153;50.960;6.220;2023-04-06T12:25:36;8.55;;;5.05;;
50267;SDS011;36153;50.960;6.220;2023-04-06T12:28:39;9.30;;;5.35;;
50267;SDS011;36153;50.960;6.220;2023-04-06T12:31:40;8.38;;;4.88;;
50267;SDS011;36153;50.960;6.220;2023-04-06T12:34:40;9.75;;;5.13;;
50267;SDS011;36153;50.960;6.220;2023-04-06T12:37:41;9.82;;;5.40;;
50267;SDS011;36153;50.960;6.220;2023-04-06T12:40:42;9.48;;;6.05;;
50267;SDS011;36153;50.960;6.220;2023-04-06T12:43:42;9.05;;;6.13;;
50267;SDS011;36153;50.960;6.220;2023-04-06T12:46:43;10.07;;;5.80;;
50267;SDS011;36153;50.960;6.220;2023-04-06T12:49:44;11.02;;;5.95;;
50267;SDS011;36153;50.960;6.220;2023-04-06T12:52:44;10.52;;;5.88;;
50267;SDS011;36153;50.960;6.220;2023-04-06T12:55:44;9.55;;;6.78;;
50267;SDS011;36153;50.960;6.220;2023-04-06T12:58:45;10.43;;;6.10;;
50267;SDS011;36153;50.960;6.220;2023-04-06T13:01:45;11.32;;;6.43;;
50267;SDS011;36153;50.960;6.220;2023-04-06T13:04:46;8.68;;;5.38;;
50267;SDS011;36153;50.960;6.220;2023-04-06T13:07:46;9.75;;;5.78;;
50267;SDS011;36153;50.960;6.220;2023-04-06T13:10:47;9.85;;;5.50;;
50267;SDS011;36153;50.960;6.220;2023-04-06T13:13:49;10.80;;;4.93;;
50267;SDS011;36153;50.960;6.220;2023-04-06T13:16:49;8.27;;;5.10;;
50267;SDS011;36153;50.960;6.220;2023-04-06T13:19:51;12.43;;;5.82;;
50267;SDS011;36153;50.960;6.220;2023-04-06T13:22:51;9.07;;;5.65;;
50267;SDS011;36153;50.960;6.220;2023-04-06T13:26:02;9.18;;;5.15;;
50267;SDS011;36153;50.960;6.220;2023-04-06T13:29:06;7.40;;;5.10;;
50267;SDS011;36153;50.960;6.220;2023-04-06T13:32:06;9.60;;;5.45;;
50267;SDS011;36153;50.960;6.220;2023-04-06T13:35:09;8.45;;;6.03;;
50267;SDS011;36153;50.960;6.220;2023-04-06T13:38:10;9.00;;;5.63;;
50267;SDS011;36153;50.960;6.220;2023-04-06T13:41:16;10.13;;;5.05;;
50267;SDS011;36153;50.960;6.220;2023-04-06T13:44:25;7.63;;;5.40;;
50267;SDS011;36153;50.960;6.220;2023-04-06T13:47:26;10.18;;;5.93;;
50267;SDS011;36153;50.960;6.220;2023-04-06T13:50:27;10.38;;;6.20;;
50267;SDS011;36153;50.960;6.220;2023-04-06T13:53:28;9.63;;;5.47;;
50267;SDS011;36153;50.960;6.220;2023-04-06T13:56:28;9.23;;;5.63;;
50267;SDS011;36153;50.960;6.220;2023-04-06T13:59:32;7.75;;;4.75;;
50267;SDS011;36153;50.960;6.220;2023-04-06T14:02:33;9.20;;;5.47;;
50267;SDS011;36153;50.960;6.220;2023-04-06T14:05:34;5.53;;;4.00;;
50267;SDS011;36153;50.960;6.220;2023-04-06T14:08:34;6.43;;;4.03;;
50267;SDS011;36153;50.960;6.220;2023-04-06T14:11:35;6.05;;;4.22;;
50267;SDS011;36153;50.960;6.220;2023-04-06T14:14:36;6.32;;;4.38;;
50267;SDS011;36153;50.960;6.220;2023-04-06T14:17:37;8.57;;;4.55;;
50267;SDS011;36153;50.960;6.220;2023-04-06T14:20:38;7.50;;;4.70;;
50267;SDS011;36153;50.960;6.220;2023-04-06T14:23:38;6.18;;;4.00;;
50267;SDS011;36153;50.960;6.220;2023-04-06T14:26:40;6.35;;;3.55;;
50267;SDS011;36153;50.960;6.220;2023-04-06T14:29:44;7.57;;;3.67;;
50267;SDS011;36153;50.960;6.220;2023-04-06T14:32:44;6.00;;;3.92;;
50267;SDS011;36153;50.960;6.220;2023-04-06T14:35:44;11.02;;;4.03;;
50267;SDS011;36153;50.960;6.220;2023-04-06T14:38:45;4.72;;;3.97;;
50267;SDS011;36153;50.960;6.220;2023-04-06T14:41:48;7.65;;;3.70;;
50267;SDS011;36153;50.960;6.220;2023-04-06T14:44:48;6.38;;;4.32;;
50267;SDS011;36153;50.960;6.220;2023-04-06T14:47:49;6.05;;;3.65;;
50267;SDS011;36153;50.960;6.220;2023-04-06T14:50:53;6.18;;;3.97;;
50267;SDS011;36153;50.960;6.220;2023-04-06T14:53:55;6.15;;;4.00;;
50267;SDS011;36153;50.960;6.220;2023-04-06T14:56:56;6.00;;;4.18;;
50267;SDS011;36153;50.960;6.220;2023-04-06T14:59:56;5.05;;;3.35;;
50267;SDS011;36153;50.960;6.220;2023-04-06T15:02:57;4.88;;;3.30;;
50267;SDS011;36153;50.960;6.220;2023-04-06T15:05:57;7.47;;;3.40;;
50267;SDS011;36153;50.960;6.220;2023-04-06T15:08:57;4.30;;;2.72;;
50267;SDS011;36153;50.960;6.220;2023-04-06T15:11:58;5.75;;;3.60;;
50267;SDS011;36153;50.960;6.220;2023-04-06T15:14:58;6.63;;;4.05;;
50267;SDS011;36153;50.960;6.220;2023-04-06T15:18:00;6.35;;;3.58;;
50267;SDS011;36153;50.960;6.220;2023-04-06T15:21:02;5.65;;;3.85;;
50267;SDS011;36153;50.960;6.220;2023-04-06T15:24:03;7.15;;;4.40;;
50267;SDS011;36153;50.960;6.220;2023-04-06T15:27:06;5.82;;;4.13;;
50267;SDS011;36153;50.960;6.220;2023-04-06T15:30:06;6.20;;;3.85;;
50267;SDS011;36153;50.960;6.220;2023-04-06T15:33:07;6.63;;;4.15;;
50267;SDS011;36153;50.960;6.220;2023-04-06T15:36:27;5.82;;;4.55;;
50267;SDS011;36153;50.960;6.220;2023-04-06T15:39:29;8.73;;;5.93;;
50267;SDS011;36153;50.960;6.220;2023-04-06T15:42:29;8.82;;;5.18;;
50267;SDS011;36153;50.960;6.220;2023-04-06T15:45:30;6.30;;;4.65;;
50267;SDS011;36153;50.960;6.220;2023-04-06T15:48:30;5.85;;;3.95;;
50267;SDS011;36153;50.960;6.220;2023-04-06T15:51:31;6.85;;;4.40;;
50267;SDS011;36153;50.960;6.220;2023-04-06T15:54:32;6.80;;;4.22;;
50267;SDS011;36153;50.960;6.220;2023-04-06T15:57:33;6.70;;;4.35;;
50267;SDS011;36153;50.960;6.220;2023-04-06T16:00:33;7.80;;;5.07;;
50267;SDS011;36153;50.960;6.220;2023-04-06T16:03:34;6.18;;;3.58;;
50267;SDS011;36153;50.960;6.220;2023-04-06T16:06:34;5.47;;;3.63;;
50267;SDS011;36153;50.960;6.220;2023-04-06T16:09:35;5.97;;;3.88;;
50267;SDS011;36153;50.960;6.220;2023-04-06T16:12:35;2.65;;;1.67;;
50267;SDS011;36153;50.960;6.220;2023-04-06T16:15:36;3.20;;;2.10;;
50267;SDS011;36153;50.960;6.220;2023-04-06T16:18:36;4.90;;;3.28;;
50267;SDS011;36153;50.960;6.220;2023-04-06T16:21:36;5.32;;;3.05;;
50267;SDS011;36153;50.960;6.220;2023-04-06T16:24:37;3.33;;;1.90;;
50267;SDS011;36153;50.960;6.220;2023-04-06T16:27:37;3.67;;;1.90;;
50267;SDS011;36153;50.960;6.220;2023-04-06T16:30:38;3.83;;;2.10;;
50267;SDS011;36153;50.960;6.220;2023-04-06T16:33:39;4.30;;;2.38;;
50267;SDS011;36153;50.960;6.220;2023-04-06T16:36:41;4.38;;;3.03;;
50267;SDS011;36153;50.960;6.220;2023-04-06T16:39:41;4.88;;;2.90;;
50267;SDS011;36153;50.960;6.220;2023-04-06T16:42:42;2.72;;;2.08;;
50267;SDS011;36153;50.960;6.220;2023-04-06T16:45:48;3.90;;;2.53;;
50267;SDS011;36153;50.960;6.220;2023-04-06T16:48:49;2.65;;;2.35;;
50267;SDS011;36153;50.960;6.220;2023-04-06T16:51:50;3.65;;;2.20;;
50267;SDS011;36153;50.960;6.220;2023-04-06T16:54:51;3.25;;;2.10;;
50267;SDS011;36153;50.960;6.220;2023-04-06T16:57:55;2.95;;;2.05;;
50267;SDS011;36153;50.960;6.220;2023-04-06T17:00:55;2.83;;;1.98;;
50267;SDS011;36153;50.960;6.220;2023-04-06T17:03:59;3.55;;;2.63;;
50267;SDS011;36153;50.960;6.220;2023-04-06T17:07:00;3.13;;;2.47;;
50267;SDS011;36153;50.960;6.220;2023-04-06T17:10:01;5.68;;;3.17;;
50267;SDS011;36153;50.960;6.220;2023-04-06T17:13:02;4.32;;;3.45;;
50267;SDS011;36153;50.960;6.220;2023-04-06T17:16:09;4.07;;;3.28;;
50267;SDS011;36153;50.960;6.220;2023-04-06T17:19:10;5.38;;;4.25;;
50267;SDS011;36153;50.960;6.220;2023-04-06T17:22:11;6.25;;;5.10;;
50267;SDS011;36153;50.960;6.220;2023-04-06T17:25:11;4.00;;;2.72;;
50267;SDS011;36153;50.960;6.220;2023-04-06T17:28:12;3.92;;;2.88;;
50267;SDS011;36153;50.960;6.220;2023-04-06T17:31:15;8.23;;;5.82;;
50267;SDS011;36153;50.960;6.220;2023-04-06T17:34:15;5.80;;;3.33;;
50267;SDS011;36153;50.960;6.220;2023-04-06T17:37:16;5.13;;;3.20;;
50267;SDS011;36153;50.960;6.220;2023-04-06T17:40:16;4.13;;;3.60;;
50267;SDS011;36153;50.960;6.220;2023-04-06T17:43:17;5.35;;;3.50;;
50267;SDS011;36153;50.960;6.220;2023-04-06T17:46:17;3.80;;;3.25;;
50267;SDS011;36153;50.960;6.220;2023-04-06T17:49:19;4.35;;;3.72;;
50267;SDS011;36153;50.960;6.220;2023-04-06T17:52:20;3.22;;;2.60;;
50267;SDS011;36153;50.960;6.220;2023-04-06T17:55:20;3.50;;;2.40;;
50267;SDS011;36153;50.960;6.220;2023-04-06T17:58:21;3.22;;;2.03;;
50267;SDS011;36153;50.960;6.220;2023-04-06T18:01:22;2.92;;;2.42;;